Terminal Aerodrome Forecast
Issued by NWS Greer, SC

Home | Current Version | Previous Version | Text Only | Print | Product List | Glossary On
Versions: 1 2 3 4 5 6 7 8 9 10 11 12 13 14 15 16 17 18
000
FTUS42 KGSP 231129
TAFGSP
TAF
KGSP 231129Z 2312/2412 07014G24KT 5SM +SHRA BR OVC015
     FM231400 08014G25KT 3SM +SHRA BR OVC007
     FM231600 08016G26KT 1SM +SHRA BR OVC006
     FM232100 08014G24KT 2SM +SHRA BR OVC005
     FM240600 07013G23KT 3SM -SHRA BR OVC004
     FM240900 07011KT 4SM -SHRA BR OVC003=

USA.gov is the U.S. government's official web portal to all federal, state and local government web resources and services.